Time;durP1;ratioP1;P1;durP2;ratioP2;P2;SDS_P1;SDS_P2;PMS_P1;PMS_P2;Temp;Humidity;BMP_temperature;BMP_pressure;BME280_temperature;BME280_humidity;BME280_pressure;Samples;Min_cycle;Max_cycle;Signal;HPM_P1;HPM_P2
2023/12/03 00:04:16;;;;;;;7.63;6.80;;;;;;;-2.88;96.36;147946.19;10541937;28;20032;-71
2023/12/03 00:09:18;;;;;;;8.10;7.28;;;;;;;-2.97;97.17;147924.47;10541545;28;20090;-70
2023/12/03 00:14:20;;;;;;;8.93;7.10;;;;;;;-2.89;97.07;147943.66;10542133;28;20048;-70
2023/12/03 00:19:22;;;;;;;10.15;7.63;;;;;;;-2.91;98.20;147939.84;10541443;28;20043;-70
2023/12/03 00:24:24;;;;;;;8.27;7.05;;;;;;;-3.16;99.66;147877.25;10540936;28;20043;-70
2023/12/03 00:29:26;;;;;;;10.07;7.93;;;;;;;-2.89;98.29;147944.91;10540336;28;20040;-71
2023/12/03 00:34:28;;;;;;;10.15;7.88;;;;;;;-3.00;99.18;147916.84;10541642;28;20040;-73
2023/12/03 00:39:30;;;;;;;8.60;7.15;;;;;;;-2.94;99.07;147932.16;10542172;28;20111;-71
2023/12/03 00:44:32;;;;;;;7.88;7.05;;;;;;;-2.73;97.75;147984.53;10524366;28;20510;-71
2023/12/03 00:49:34;;;;;;;10.23;7.93;;;;;;;-2.77;98.34;147974.31;10541635;28;20036;-71
2023/12/03 00:54:36;;;;;;;9.65;8.15;;;;;;;-2.78;98.77;147971.75;10540036;28;20063;-71
2023/12/03 00:59:38;;;;;;;10.00;8.50;;;;;;;-2.84;99.58;147957.69;10539634;28;20044;-71
2023/12/03 01:04:40;;;;;;;11.25;8.93;;;;;;;-2.90;99.67;147941.09;10539733;28;20111;-72
2023/12/03 01:09:42;;;;;;;8.45;7.63;;;;;;;-2.92;99.83;147935.97;10539798;28;20539;-71
2023/12/03 01:14:44;;;;;;;11.65;8.50;;;;;;;-3.00;99.41;147915.59;10521533;28;20055;-71
2023/12/03 01:19:45;;;;;;;11.63;8.85;;;;;;;-2.98;99.67;147921.94;10539441;28;20071;-71
2023/12/03 01:24:47;;;;;;;9.52;8.35;;;;;;;-2.92;98.92;147937.28;10539310;28;20032;-71
2023/12/03 01:29:49;;;;;;;9.80;8.18;;;;;;;-2.94;98.78;147932.16;10524341;28;20048;-71
2023/12/03 01:34:51;;;;;;;10.25;9.23;;;;;;;-2.92;98.55;147935.97;10546709;28;20403;-71
2023/12/03 01:39:53;;;;;;;9.70;7.65;;;;;;;-2.93;99.15;147933.44;10546792;28;20414;-71
2023/12/03 01:44:55;;;;;;;12.00;8.20;;;;;;;-3.04;100.00;147906.63;10546394;28;20040;-71
2023/12/03 01:50:06;;;;;;;10.98;8.57;;;;;;;-2.94;98.83;147930.88;10546956;28;20076;-71
2023/12/03 01:55:11;;;;;;;11.50;8.45;;;;;;;-3.04;99.40;147906.63;10547482;28;20438;-71
2023/12/03 02:00:13;;;;;;;9.55;7.93;;;;;;;-2.95;98.59;147929.63;10527804;28;20079;-71
2023/12/03 02:05:15;;;;;;;10.95;8.25;;;;;;;-2.97;99.31;147923.22;10527559;28;20101;-71
2023/12/03 02:10:17;;;;;;;11.30;8.20;;;;;;;-2.87;98.68;147948.78;10546379;28;20066;-71
2023/12/03 02:15:19;;;;;;;12.10;8.85;;;;;;;-2.93;100.00;147934.69;10526717;28;20147;-71
2023/12/03 02:20:21;;;;;;;12.52;9.45;;;;;;;-2.86;99.45;147952.59;10544801;28;20055;-72
2023/12/03 02:25:33;;;;;;;14.43;9.57;;;;;;;-2.84;98.98;147956.41;10545666;28;20038;-69
2023/12/03 02:30:35;;;;;;;11.00;8.80;;;;;;;-2.79;99.04;147969.19;10483403;28;20132;-71
2023/12/03 02:35:36;;;;;;;10.85;8.20;;;;;;;-2.67;98.06;147999.84;10508063;28;20048;-72
2023/12/03 02:40:39;;;;;;;11.70;9.25;;;;;;;-2.70;98.26;147990.88;10526103;28;20124;-72
2023/12/03 02:45:40;;;;;;;10.10;7.78;;;;;;;-2.71;98.40;147989.63;10543387;28;20036;-72
2023/12/03 02:50:42;;;;;;;10.18;8.90;;;;;;;-2.65;98.43;148004.97;10543269;28;20044;-72
2023/12/03 02:55:44;;;;;;;11.75;9.05;;;;;;;-2.73;97.72;147983.25;10543130;28;20575;-73
2023/12/03 03:00:46;;;;;;;9.80;8.77;;;;;;;-2.69;97.32;147994.75;10543130;28;20036;-72
2023/12/03 03:05:47;;;;;;;11.77;8.93;;;;;;;-2.78;97.65;147971.75;10524598;28;20048;-72
2023/12/03 03:10:49;;;;;;;11.35;8.25;;;;;;;-2.90;98.45;147942.38;10543061;28;20043;-72
2023/12/03 03:15:52;;;;;;;12.93;9.40;;;;;;;-3.00;99.63;147916.84;10542201;28;20036;-72
2023/12/03 03:20:54;;;;;;;12.10;9.23;;;;;;;-2.92;100.00;147935.97;10543188;28;20040;-72
2023/12/03 03:25:56;;;;;;;13.45;9.63;;;;;;;-2.91;100.00;147938.56;10542148;28;20082;-71
2023/12/03 03:30:58;;;;;;;14.35;9.52;;;;;;;-2.87;100.00;147950.06;10541585;28;20486;-72
2023/12/03 03:36:00;;;;;;;13.63;9.45;;;;;;;-2.70;99.95;147990.88;10541404;28;20043;-72
2023/12/03 03:41:02;;;;;;;12.50;9.38;;;;;;;-2.65;98.96;148004.97;10541904;28;20123;-72
2023/12/03 03:46:04;;;;;;;9.65;8.50;;;;;;;-2.56;98.58;148027.97;10541112;28;20079;-72
2023/12/03 03:51:06;;;;;;;14.55;9.57;;;;;;;-2.75;98.94;147979.41;10521828;28;20054;-71
2023/12/03 03:56:08;;;;;;;11.60;9.20;;;;;;;-2.82;100.00;147961.53;10541200;28;20081;-71
2023/12/03 04:01:10;;;;;;;13.00;9.30;;;;;;;-2.72;99.65;147987.06;10541746;28;20406;-71
2023/12/03 04:06:12;;;;;;;10.65;8.70;;;;;;;-2.57;99.33;148025.41;10541258;28;20157;-71
2023/12/03 04:11:14;;;;;;;9.60;7.75;;;;;;;-2.48;98.43;148045.81;10540272;28;20044;-71
2023/12/03 04:16:24;;;;;;;11.45;9.23;;;;;;;-2.46;98.31;148050.94;10541472;28;20113;-71
2023/12/03 04:21:26;;;;;;;11.35;9.00;;;;;;;-2.71;100.00;147989.63;10539943;28;20048;-72
2023/12/03 04:26:28;;;;;;;9.50;8.50;;;;;;;-2.57;99.81;148025.41;10540661;28;20045;-71
2023/12/03 04:31:29;;;;;;;10.02;8.68;;;;;;;-2.45;99.28;148054.75;10540296;28;20040;-71
2023/12/03 04:36:31;;;;;;;10.50;8.07;;;;;;;-2.56;100.00;148027.97;10539539;28;20067;-72
2023/12/03 04:41:34;;;;;;;14.18;9.13;;;;;;;-2.42;100.00;148062.44;10539678;28;20054;-71
2023/12/03 04:46:41;;;;;;;10.02;8.05;;;;;;;-2.60;100.00;148016.47;10555096;28;20101;-73
2023/12/03 04:51:43;;;;;;;10.80;8.23;;;;;;;-2.53;100.00;148035.59;10521735;28;20105;-71
2023/12/03 04:56:45;;;;;;;10.35;8.70;;;;;;;-2.65;100.00;148004.97;10539243;28;20042;-72
2023/12/03 05:01:46;;;;;;;11.20;8.48;;;;;;;-2.32;100.00;148086.72;10539075;28;20131;-72
2023/12/03 05:06:48;;;;;;;8.30;7.40;;;;;;;-2.17;100.00;148123.75;10546524;28;20051;-72
2023/12/03 05:11:50;;;;;;;9.50;8.40;;;;;;;-2.31;100.00;148089.25;10528722;28;20067;-72
2023/12/03 05:16:52;;;;;;;9.30;7.85;;;;;;;-2.18;100.00;148121.19;10546335;28;20047;-72
2023/12/03 05:21:53;;;;;;;8.52;7.53;;;;;;;-2.18;100.00;148122.47;10546635;28;20115;-72
2023/12/03 05:26:55;;;;;;;7.80;7.05;;;;;;;-2.34;100.00;148081.63;10546959;28;20042;-71
2023/12/03 05:31:57;;;;;;;8.45;7.00;;;;;;;-2.33;100.00;148084.16;10528048;28;20482;-71
2023/12/03 05:36:58;;;;;;;9.55;7.72;;;;;;;-2.28;100.00;148098.19;10546675;28;20040;-71
2023/12/03 05:42:01;;;;;;;8.50;7.53;;;;;;;-2.21;100.00;148113.53;10546633;28;20098;-71
2023/12/03 05:47:03;;;;;;;8.48;7.50;;;;;;;-2.32;100.00;148087.97;10546158;28;20040;-71
2023/12/03 05:52:06;;;;;;;9.38;8.15;;;;;;;-2.20;100.00;148117.38;10546170;28;20040;-71
2023/12/03 05:57:08;;;;;;;9.40;7.55;;;;;;;-2.12;100.00;148136.56;10545801;28;20391;-71
2023/12/03 06:02:09;;;;;;;8.52;7.47;;;;;;;-2.26;100.00;148100.75;10545858;28;20119;-71
2023/12/03 06:07:11;;;;;;;10.05;8.30;;;;;;;-2.05;100.00;148155.69;10545815;28;20388;-71
2023/12/03 06:12:13;;;;;;;9.77;8.68;;;;;;;-2.11;100.00;148140.38;10545267;28;20368;-71
2023/12/03 06:17:15;;;;;;;10.80;8.60;;;;;;;-1.99;100.00;148168.47;10544043;28;20131;-71
2023/12/03 06:22:17;;;;;;;8.57;6.93;;;;;;;-2.11;100.00;148140.38;10545711;28;20047;-72
2023/12/03 06:27:18;;;;;;;10.60;8.43;;;;;;;-2.15;100.00;148128.88;10545962;28;20069;-72
2023/12/03 06:32:20;;;;;;;10.30;8.15;;;;;;;-2.26;100.00;148100.75;10542154;28;20048;-72
2023/12/03 06:37:22;;;;;;;9.57;8.30;;;;;;;-2.19;99.59;148119.94;10543628;28;20090;-72
2023/12/03 06:42:23;;;;;;;8.77;7.32;;;;;;;-2.10;98.41;148142.91;10525472;28;20098;-72
2023/12/03 06:47:27;;;;;;;9.85;8.45;;;;;;;-2.19;98.94;148119.94;10543479;28;20106;-73
2023/12/03 06:52:29;;;;;;;11.70;8.00;;;;;;;-1.99;97.84;148168.47;10544318;28;20085;-71
2023/12/03 06:57:31;;;;;;;11.50;9.73;;;;;;;-2.10;98.18;148142.91;10542610;28;20368;-72
2023/12/03 07:02:33;;;;;;;9.95;7.93;;;;;;;-2.01;97.64;148163.38;10543233;28;20040;-72
2023/12/03 07:07:35;;;;;;;10.20;7.78;;;;;;;-2.25;100.00;148104.63;10542493;28;20124;-72
2023/12/03 07:12:36;;;;;;;10.88;8.00;;;;;;;-2.11;99.04;148140.38;10542162;28;20052;-72
2023/12/03 07:17:41;;;;;;;10.00;7.68;;;;;;;-2.06;99.25;148151.88;10542398;28;20040;-72
2023/12/03 07:22:43;;;;;;;10.32;8.63;;;;;;;-2.05;100.00;148154.41;10523859;28;20078;-71
2023/12/03 07:27:45;;;;;;;15.77;10.38;;;;;;;-2.08;100.00;148146.75;10521860;28;20070;-72
2023/12/03 07:32:47;;;;;;;11.85;8.70;;;;;;;-1.91;99.24;148190.19;10541219;28;20101;-71
2023/12/03 07:37:49;;;;;;;12.00;9.13;;;;;;;-1.96;99.92;148176.16;10542306;28;20044;-72
2023/12/03 07:42:50;;;;;;;11.07;8.68;;;;;;;-1.86;97.79;148201.69;10541611;28;20048;-71
2023/12/03 07:47:52;;;;;;;12.63;9.13;;;;;;;-1.99;99.31;148168.47;10541602;28;20076;-71
2023/12/03 07:52:54;;;;;;;11.40;9.02;;;;;;;-1.98;98.74;148171.06;10541955;28;20043;-72
2023/12/03 07:57:56;;;;;;;9.90;8.95;;;;;;;-2.20;100.00;148117.38;10540564;28;20430;-71
2023/12/03 08:02:57;;;;;;;11.00;9.02;;;;;;;-1.95;98.83;148179.97;10541466;28;20123;-73
2023/12/03 08:07:59;;;;;;;11.50;7.88;;;;;;;-1.86;98.07;148201.69;10541350;28;20042;-73
2023/12/03 08:13:01;;;;;;;10.27;8.40;;;;;;;-1.61;96.26;148264.34;10540820;28;20087;-72
2023/12/03 08:18:03;;;;;;;9.77;8.40;;;;;;;-1.61;96.18;148265.63;10540598;28;20040;-72
2023/12/03 08:28:36;;;;;;;8.93;7.65;;;;;;;-1.65;96.93;148254.13;10431206;23;20054;-82
2023/12/03 08:33:41;;;;;;;8.93;8.00;;;;;;;-1.59;96.67;148270.75;10331456;28;20093;-82
2023/12/03 08:38:43;;;;;;;9.85;7.80;;;;;;;-1.40;97.03;148316.78;10334086;28;20050;-82
2023/12/03 08:43:45;;;;;;;10.38;7.72;;;;;;;-1.63;97.10;148260.53;10356979;28;20065;-83
2023/12/03 08:48:47;;;;;;;9.88;7.20;;;;;;;-1.58;96.23;148273.31;10364143;28;20050;-82
2023/12/03 08:53:49;;;;;;;7.35;6.50;;;;;;;-1.39;94.07;148320.59;10364096;28;20042;-81
2023/12/03 08:58:53;;;;;;;8.38;6.72;;;;;;;-1.54;93.95;148283.53;10371358;28;20129;-82
2023/12/03 09:04:04;;;;;;;8.27;6.75;;;;;;;-1.44;92.42;148307.81;10359015;28;20517;-82
2023/12/03 09:09:05;;;;;;;7.47;6.70;;;;;;;-1.50;93.00;148292.50;10368901;28;20097;-82
2023/12/03 09:14:07;;;;;;;8.02;6.20;;;;;;;-1.42;93.07;148312.91;10364803;28;20106;-83
2023/12/03 09:19:09;;;;;;;7.57;6.22;;;;;;;-1.46;91.73;148302.72;10351500;28;20077;-79
2023/12/03 09:24:12;;;;;;;7.57;6.50;;;;;;;-1.44;92.44;148306.53;10368668;28;20038;-80
2023/12/03 09:29:14;;;;;;;7.57;6.78;;;;;;;-1.36;91.21;148327.00;10340107;28;20074;-83
2023/12/03 09:34:16;;;;;;;6.88;5.80;;;;;;;-1.43;89.81;148309.09;10371570;28;20039;-83
2023/12/03 09:39:17;;;;;;;7.13;6.40;;;;;;;-1.31;89.84;148339.78;10354146;28;20081;-81
2023/12/03 09:44:35;;;;;;;5.93;5.32;;;;;;;-1.38;89.30;148321.88;10356610;28;20121;-81
2023/12/03 09:49:38;;;;;;;6.88;5.65;;;;;;;-1.38;89.89;148323.13;10334558;28;20051;-83
2023/12/03 09:54:42;;;;;;;6.97;6.07;;;;;;;-1.33;90.12;148334.66;10333982;28;20070;-80
2023/12/03 09:59:47;;;;;;;6.90;6.20;;;;;;;-1.34;89.62;148332.09;10332768;28;20510;-81
2023/12/03 10:04:48;;;;;;;6.90;6.03;;;;;;;-1.46;91.96;148302.72;10334269;28;20089;-82
2023/12/03 10:09:52;;;;;;;6.32;5.70;;;;;;;-1.42;92.31;148311.63;10353542;28;20046;-82
2023/12/03 10:14:57;;;;;;;6.10;5.50;;;;;;;-1.35;92.42;148330.84;10352687;28;20039;-83
2023/12/03 10:20:18;;;;;;;7.75;5.95;;;;;;;-1.12;91.36;148387.09;10336170;28;20047;-83
2023/12/03 10:25:26;;;;;;;7.55;5.97;;;;;;;-1.12;91.25;148388.38;10350305;28;20056;-82
2023/12/03 10:30:29;;;;;;;7.20;6.05;;;;;;;-1.20;92.15;148367.91;10333364;28;20077;-82
2023/12/03 10:35:35;;;;;;;7.75;6.53;;;;;;;-1.20;93.05;148366.63;10316586;28;20046;-82
2023/12/03 10:40:37;;;;;;;5.67;5.10;;;;;;;-0.95;89.85;148429.31;10351670;28;20042;-84
2023/12/03 10:45:39;;;;;;;8.98;7.45;;;;;;;-1.27;93.14;148350.03;10333594;28;20039;-81
2023/12/03 10:50:45;;;;;;;7.90;6.80;;;;;;;-1.12;91.39;148388.38;10343256;28;20062;-82
2023/12/03 10:55:48;;;;;;;7.53;6.70;;;;;;;-1.04;91.94;148408.84;10353572;28;20049;-82
2023/12/03 11:00:58;;;;;;;7.80;6.82;;;;;;;-1.12;92.15;148388.38;10370264;28;20030;-81
2023/12/03 11:06:03;;;;;;;8.30;7.07;;;;;;;-1.01;92.09;148415.25;10385859;28;20046;-82
2023/12/03 11:11:08;;;;;;;8.75;7.30;;;;;;;-1.03;91.63;148411.38;10372868;28;20173;-83
2023/12/03 11:16:13;;;;;;;9.32;7.50;;;;;;;-1.10;92.49;148392.22;10358829;28;20073;-83
2023/12/03 11:21:49;;;;;;;10.32;7.97;;;;;;;-1.02;93.02;148413.97;10340231;28;20465;-82
2023/12/03 11:26:51;;;;;;;9.20;7.45;;;;;;;-1.00;94.74;148416.53;10330744;28;20047;-84
2023/12/03 11:31:52;;;;;;;13.57;8.00;;;;;;;-0.92;94.00;148438.28;10336048;28;20050;-82
2023/12/03 11:36:55;;;;;;;7.70;6.93;;;;;;;-0.86;94.78;148452.34;10351264;28;20068;-81
2023/12/03 11:42:05;;;;;;;8.85;7.95;;;;;;;-0.72;91.51;148486.88;10331008;28;20046;-83
2023/12/03 11:47:11;;;;;;;8.40;7.45;;;;;;;-0.86;91.47;148452.34;10329150;28;20080;-83
2023/12/03 11:52:14;;;;;;;6.30;5.57;;;;;;;-1.02;93.76;148412.66;10314894;28;20465;-81
2023/12/03 11:57:16;;;;;;;7.88;6.80;;;;;;;-0.95;93.59;148429.31;10358975;28;20100;-82
2023/12/03 12:02:18;;;;;;;8.48;6.57;;;;;;;-0.87;95.17;148449.78;10336376;28;20050;-82
2023/12/03 12:07:20;;;;;;;9.57;8.60;;;;;;;-1.21;99.19;148365.34;10362801;28;20182;-82
2023/12/03 12:12:22;;;;;;;10.80;7.97;;;;;;;-1.07;100.00;148401.16;10353292;28;20042;-81
2023/12/03 12:17:25;;;;;;;36.88;17.45;;;;;;;-0.66;98.65;148502.25;10355579;28;20038;-80
2023/12/03 12:22:27;;;;;;;12.55;10.27;;;;;;;-0.86;99.38;148452.34;10351955;28;20105;-82
2023/12/03 12:27:29;;;;;;;12.73;10.55;;;;;;;-0.69;98.43;148495.84;10347375;28;20046;-82
2023/12/03 12:32:31;;;;;;;12.27;10.82;;;;;;;-0.55;96.81;148531.66;10347380;28;20483;-81
2023/12/03 12:37:34;;;;;;;10.32;8.55;;;;;;;-0.67;97.66;148499.66;10346437;28;20038;-81
2023/12/03 12:42:42;;;;;;;11.20;9.90;;;;;;;-0.66;98.48;148503.53;10347198;28;20129;-82
2023/12/03 12:47:44;;;;;;;32.10;19.00;;;;;;;-0.66;97.71;148502.25;10346537;28;20039;-81
2023/12/03 12:52:55;;;;;;;34.50;18.35;;;;;;;-0.51;97.75;148541.88;10328823;28;20422;-81
2023/12/03 12:57:58;;;;;;;15.07;12.25;;;;;;;-0.69;99.76;148495.84;10347229;28;20042;-81
2023/12/03 13:03:01;;;;;;;11.38;10.18;;;;;;;-0.65;99.09;148504.78;10334237;28;20390;-81
2023/12/03 13:08:03;;;;;;;17.60;12.20;;;;;;;-0.78;98.54;148472.81;10334343;28;20097;-82
2023/12/03 13:13:05;;;;;;;12.77;11.48;;;;;;;-0.90;99.58;148442.09;10331945;28;20069;-81
2023/12/03 13:18:07;;;;;;;14.80;12.93;;;;;;;-0.82;100.00;148462.56;10350985;28;20422;-82
2023/12/03 13:23:24;;;;;;;12.27;10.38;;;;;;;-0.89;99.81;148445.91;10348959;28;20097;-83
2023/12/03 13:28:28;;;;;;;14.60;11.23;;;;;;;-0.71;99.39;148489.41;10307478;28;20042;-84
2023/12/03 13:33:32;;;;;;;12.70;11.38;;;;;;;-0.62;98.87;148513.75;10342317;28;20077;-83
2023/12/03 13:38:38;;;;;;;11.35;10.07;;;;;;;-0.84;100.00;148458.75;10341651;28;20046;-82
2023/12/03 13:43:40;;;;;;;8.43;7.63;;;;;;;-0.81;100.00;148465.13;10359938;28;20050;-82
2023/12/03 13:48:43;;;;;;;9.35;6.68;;;;;;;-0.85;100.00;148454.88;10326990;28;20066;-82
2023/12/03 13:53:45;;;;;;;9.05;7.55;;;;;;;-1.10;100.00;148392.22;10360765;28;20046;-84
2023/12/03 13:58:47;;;;;;;8.65;7.75;;;;;;;-1.06;100.00;148402.47;10342325;28;20142;-83
2023/12/03 14:03:49;;;;;;;11.68;10.25;;;;;;;-0.90;100.00;148443.38;10340196;28;20074;-83
2023/12/03 14:08:51;;;;;;;11.45;10.25;;;;;;;-0.87;100.00;148451.06;10356228;28;20389;-84
2023/12/03 14:13:53;;;;;;;10.98;8.77;;;;;;;-0.85;99.96;148454.88;10336363;28;20406;-82
2023/12/03 14:18:55;;;;;;;10.10;8.05;;;;;;;-0.99;100.00;148420.34;10353087;28;20111;-83
2023/12/03 14:23:57;;;;;;;9.43;8.13;;;;;;;-0.99;100.00;148419.06;10352973;28;20057;-83
2023/12/03 14:28:59;;;;;;;9.38;8.48;;;;;;;-1.10;100.00;148393.50;10350360;28;20049;-81
2023/12/03 14:34:00;;;;;;;11.13;8.85;;;;;;;-1.04;100.00;148407.56;10333124;28;20046;-80
2023/12/03 14:39:02;;;;;;;8.77;7.75;;;;;;;-0.89;100.00;148444.63;10316491;28;20038;-81
2023/12/03 14:44:05;;;;;;;8.30;7.22;;;;;;;-0.87;100.00;148451.06;10352146;28;20046;-82
2023/12/03 14:49:10;;;;;;;9.18;8.27;;;;;;;-1.07;100.00;148401.16;10329131;28;20046;-83
2023/12/03 14:54:12;;;;;;;8.80;7.90;;;;;;;-1.07;100.00;148401.16;10338398;28;20070;-83
2023/12/03 14:59:13;;;;;;;16.20;11.50;;;;;;;-0.98;100.00;148422.88;10351103;28;20050;-83
2023/12/03 15:04:15;;;;;;;17.08;11.90;;;;;;;-1.04;100.00;148408.84;10360554;28;20048;-83
2023/12/03 15:09:17;;;;;;;11.00;9.35;;;;;;;-0.91;100.00;148440.81;10332762;28;20046;-80
2023/12/03 15:14:19;;;;;;;17.33;14.60;;;;;;;-0.91;100.00;148439.53;10349146;28;20126;-83
2023/12/03 15:19:21;;;;;;;15.35;11.40;;;;;;;-1.01;100.00;148415.25;10375111;28;20559;-81
2023/12/03 15:24:22;;;;;;;12.52;10.82;;;;;;;-0.99;100.00;148419.06;10376118;28;20054;-80
2023/12/03 15:29:24;;;;;;;12.45;10.32;;;;;;;-0.89;100.00;148444.63;10352312;28;20046;-81
2023/12/03 15:34:26;;;;;;;14.50;11.10;;;;;;;-1.02;100.00;148412.66;10348932;28;20070;-81
2023/12/03 15:39:28;;;;;;;10.77;9.70;;;;;;;-1.04;100.00;148408.84;10329167;28;20125;-82
2023/12/03 15:44:30;;;;;;;16.95;12.18;;;;;;;-0.87;100.00;148449.78;10349535;28;20050;-81
2023/12/03 15:49:31;;;;;;;10.65;8.93;;;;;;;-0.91;100.00;148439.53;10345961;28;20054;-80
2023/12/03 15:54:33;;;;;;;18.98;13.32;;;;;;;-0.90;100.00;148443.38;10348834;28;20135;-80
2023/12/03 15:59:35;;;;;;;68.80;20.70;;;;;;;-0.92;100.00;148438.28;10333624;28;20046;-81
2023/12/03 16:04:37;;;;;;;113.25;29.77;;;;;;;-0.76;100.00;148479.19;10338792;28;20046;-83
2023/12/03 16:09:42;;;;;;;138.82;35.63;;;;;;;-0.81;100.00;148466.38;10331872;28;20038;-82
2023/12/03 16:14:44;;;;;;;50.90;19.73;;;;;;;-0.83;100.00;148460.03;10350826;28;20042;-82
2023/12/03 16:19:46;;;;;;;68.07;18.88;;;;;;;-0.93;100.00;148434.41;10330928;28;20050;-82
2023/12/03 16:24:48;;;;;;;15.77;12.57;;;;;;;-1.04;100.00;148407.56;10344010;28;20590;-82
2023/12/03 16:29:50;;;;;;;14.23;12.27;;;;;;;-0.93;100.00;148435.72;10329105;28;20053;-81
2023/12/03 16:34:53;;;;;;;22.20;14.00;;;;;;;-1.07;100.00;148399.88;10348986;28;20051;-81
2023/12/03 16:39:55;;;;;;;12.90;11.48;;;;;;;-0.90;98.83;148443.38;10360636;28;20106;-80
2023/12/03 16:44:57;;;;;;;10.77;9.32;;;;;;;-0.90;99.06;148443.38;10354856;28;20065;-80
2023/12/03 16:50:00;;;;;;;16.20;12.05;;;;;;;-0.92;99.42;148438.28;10347813;28;20050;-81
2023/12/03 16:55:03;;;;;;;10.02;8.98;;;;;;;-0.81;96.46;148465.13;10329686;28;20042;-82
2023/12/03 17:00:05;;;;;;;13.13;10.40;;;;;;;-0.99;97.99;148419.06;10337439;28;20046;-81
2023/12/03 17:05:07;;;;;;;17.10;10.60;;;;;;;-0.77;98.00;148476.63;10346057;28;20449;-81
2023/12/03 17:10:10;;;;;;;15.50;11.40;;;;;;;-1.06;99.06;148403.75;10358020;28;20046;-82
2023/12/03 17:15:11;;;;;;;11.60;10.30;;;;;;;-0.93;99.26;148434.41;10347723;28;20065;-83
2023/12/03 17:20:13;;;;;;;9.90;8.35;;;;;;;-0.99;98.01;148420.34;10352466;28;20042;-81
2023/12/03 17:25:15;;;;;;;9.63;7.47;;;;;;;-0.83;98.27;148460.03;10355804;28;20038;-82
2023/12/03 17:30:17;;;;;;;12.55;10.30;;;;;;;-0.93;98.01;148434.41;10351014;28;20114;-80
2023/12/03 17:35:21;;;;;;;15.57;12.18;;;;;;;-0.83;98.51;148460.03;10350415;28;20046;-82
2023/12/03 17:40:24;;;;;;;13.50;11.60;;;;;;;-1.15;100.00;148380.72;10333610;28;20038;-80
2023/12/03 17:45:26;;;;;;;14.90;12.27;;;;;;;-1.25;100.00;148355.13;10348676;28;20038;-80
2023/12/03 17:50:28;;;;;;;22.05;13.45;;;;;;;-1.32;100.00;148337.25;10350997;28;20052;-82
2023/12/03 17:55:30;;;;;;;14.05;10.90;;;;;;;-1.39;100.00;148320.59;10348863;28;20039;-81
2023/12/03 18:00:32;;;;;;;16.98;12.48;;;;;;;-1.34;100.00;148333.38;10365704;28;20095;-81
2023/12/03 18:05:34;;;;;;;25.27;14.10;;;;;;;-1.06;100.00;148403.75;10345873;28;20042;-82
2023/12/03 18:10:36;;;;;;;30.02;17.48;;;;;;;-0.88;100.00;148447.25;10348150;28;20046;-83
2023/12/03 18:15:38;;;;;;;16.00;11.10;;;;;;;-1.00;99.26;148416.53;10330218;28;20055;-82
2023/12/03 18:20:41;;;;;;;17.98;13.43;;;;;;;-0.86;98.10;148452.34;10349104;28;20046;-82
2023/12/03 18:25:43;;;;;;;15.25;12.95;;;;;;;-0.96;98.76;148428.03;10328334;28;20574;-81
2023/12/03 18:30:45;;;;;;;33.72;18.52;;;;;;;-0.73;97.75;148485.59;10349542;28;20458;-82
2023/12/03 18:35:47;;;;;;;17.25;14.25;;;;;;;-0.96;99.99;148426.75;10330864;28;20495;-82
2023/12/03 18:40:53;;;;;;;15.23;11.52;;;;;;;-0.88;99.56;148447.25;10336686;28;20070;-81
2023/12/03 18:45:58;;;;;;;27.40;17.95;;;;;;;-0.76;99.93;148479.19;10353204;28;20118;-81
2023/12/03 18:51:02;;;;;;;35.05;18.83;;;;;;;-0.71;100.00;148489.41;10350718;28;20042;-81
2023/12/03 18:56:05;;;;;;;16.65;11.98;;;;;;;-1.09;100.00;148396.06;10348013;28;20039;-81
2023/12/03 19:01:08;;;;;;;24.65;15.48;;;;;;;-1.09;100.00;148394.78;10348194;28;20080;-82
2023/12/03 19:06:10;;;;;;;19.85;15.02;;;;;;;-1.20;100.00;148367.91;10331845;28;20406;-83
2023/12/03 19:11:12;;;;;;;16.90;14.02;;;;;;;-1.31;100.00;148341.06;10347037;28;20503;-81
2023/12/03 19:16:14;;;;;;;16.98;12.55;;;;;;;-1.29;100.00;148346.16;10346879;28;20121;-83
2023/12/03 19:21:18;;;;;;;15.55;12.02;;;;;;;-1.23;100.00;148358.97;10342245;28;20110;-81
2023/12/03 19:26:20;;;;;;;15.05;12.70;;;;;;;-0.79;100.00;148470.25;10337277;28;20042;-80
2023/12/03 19:31:21;;;;;;;18.65;11.98;;;;;;;-0.75;100.00;148480.50;10336045;28;20105;-81
2023/12/03 19:36:23;;;;;;;18.42;11.20;;;;;;;-0.85;100.00;148454.88;10347947;28;20489;-80
2023/12/03 19:41:25;;;;;;;12.40;10.80;;;;;;;-0.84;100.00;148458.75;10327755;28;20042;-80
2023/12/03 19:46:27;;;;;;;14.43;11.60;;;;;;;-0.97;100.00;148425.50;10345342;28;20117;-81
2023/12/03 19:51:29;;;;;;;15.93;11.65;;;;;;;-1.00;100.00;148416.53;10345125;28;20126;-81
2023/12/03 19:56:31;;;;;;;14.77;11.25;;;;;;;-1.10;100.00;148393.50;10325677;28;20038;-81
2023/12/03 20:01:32;;;;;;;17.02;11.75;;;;;;;-1.18;100.00;148371.75;10310763;28;20054;-82
2023/12/03 20:06:34;;;;;;;14.55;11.73;;;;;;;-0.94;99.70;148433.13;10326972;28;20046;-82
2023/12/03 20:11:36;;;;;;;15.55;11.07;;;;;;;-0.83;99.22;148460.03;10312032;28;20050;-83
2023/12/03 20:16:38;;;;;;;16.35;11.18;;;;;;;-0.96;98.91;148428.03;10328594;28;20078;-83
2023/12/03 20:21:39;;;;;;;14.20;10.90;;;;;;;-1.01;99.71;148415.25;10344686;28;20046;-83
2023/12/03 20:26:41;;;;;;;14.20;11.02;;;;;;;-0.87;97.79;148451.06;10344308;28;20070;-82
2023/12/03 20:31:43;;;;;;;10.73;9.63;;;;;;;-1.00;98.37;148416.53;10344899;28;20077;-82
2023/12/03 20:36:45;;;;;;;13.60;11.02;;;;;;;-1.02;98.16;148412.66;10334588;28;20039;-81
2023/12/03 20:41:46;;;;;;;14.05;11.38;;;;;;;-1.08;99.10;148398.59;10355344;28;20100;-81
2023/12/03 20:46:48;;;;;;;15.13;11.45;;;;;;;-1.03;98.36;148410.09;10336429;28;20051;-81
2023/12/03 20:51:50;;;;;;;11.93;10.63;;;;;;;-1.10;98.76;148392.22;10369669;28;20050;-79
2023/12/03 20:56:51;;;;;;;13.73;11.88;;;;;;;-1.24;99.94;148357.66;10369892;28;20047;-80
2023/12/03 21:01:54;;;;;;;14.27;11.50;;;;;;;-1.39;100.00;148319.31;10377403;28;20053;-78
2023/12/03 21:06:56;;;;;;;12.30;10.57;;;;;;;-1.25;97.98;148353.84;10357484;28;20046;-81
2023/12/03 21:11:57;;;;;;;11.13;9.95;;;;;;;-1.41;97.80;148315.50;10376790;28;20042;-81
2023/12/03 21:17:00;;;;;;;12.70;9.68;;;;;;;-1.64;99.23;148257.97;10338993;28;20058;-81
2023/12/03 21:22:02;;;;;;;12.52;11.23;;;;;;;-1.78;100.00;148223.44;10353912;28;20070;-83
2023/12/03 21:27:04;;;;;;;10.57;8.68;;;;;;;-1.89;100.00;148194.06;10323995;28;20108;-82
2023/12/03 21:32:06;;;;;;;9.43;8.38;;;;;;;-2.04;100.00;148158.28;10337703;28;20090;-82
2023/12/03 21:37:08;;;;;;;12.55;9.57;;;;;;;-2.10;100.00;148142.91;10352496;28;20113;-82
2023/12/03 21:42:10;;;;;;;14.57;10.13;;;;;;;-1.65;97.65;148254.13;10320295;28;20097;-82
2023/12/03 21:47:12;;;;;;;11.45;9.52;;;;;;;-1.82;97.90;148213.19;10351303;28;20094;-81
2023/12/03 21:52:14;;;;;;;12.70;10.00;;;;;;;-1.85;96.52;148204.28;10334830;28;20050;-81
2023/12/03 21:57:16;;;;;;;11.57;10.13;;;;;;;-2.25;99.77;148103.34;10334442;28;20047;-81
2023/12/03 22:02:17;;;;;;;12.07;9.93;;;;;;;-2.11;99.02;148140.38;10352212;28;20069;-81
2023/12/03 22:07:19;;;;;;;11.73;9.82;;;;;;;-2.24;98.45;148107.16;10334124;28;20093;-81
2023/12/03 22:12:21;;;;;;;11.98;9.70;;;;;;;-2.47;99.48;148049.69;10334503;28;20133;-82
2023/12/03 22:17:22;;;;;;;14.07;9.68;;;;;;;-2.60;99.51;148016.47;10351348;28;20413;-82
2023/12/03 22:22:25;;;;;;;14.73;9.70;;;;;;;-2.82;100.00;147961.53;10333587;28;20050;-82
2023/12/03 22:27:27;;;;;;;15.52;9.93;;;;;;;-3.09;100.00;147893.88;10332154;28;20118;-83
2023/12/03 22:32:28;;;;;;;12.45;9.32;;;;;;;-3.09;100.00;147895.16;10359232;28;20056;-79
2023/12/03 22:37:31;;;;;;;9.90;8.90;;;;;;;-3.18;100.00;147872.19;10356094;28;20049;-80
2023/12/03 22:42:33;;;;;;;11.93;9.45;;;;;;;-3.43;100.00;147808.34;10354237;28;20105;-82
2023/12/03 22:47:35;;;;;;;12.40;8.15;;;;;;;-3.53;100.00;147782.81;10347073;28;20498;-81
2023/12/03 22:52:37;;;;;;;15.07;9.00;;;;;;;-3.79;100.00;147717.75;10345617;28;20093;-81
2023/12/03 22:57:38;;;;;;;11.30;9.82;;;;;;;-3.83;100.00;147708.81;10326886;28;20081;-81